メインページ
METAR-TAF:

METAR-TAF

空港 :

ハバナ, キューバ

ホセ・マルティ国際空港

緯度: 22-59N, 経度: 082-24W, 海抜: 59m

現時点の気象観測

当レポートは1時間12分前の09:55(UTC)に作成
の風 2kt
気温 21°C
湿度 94%
気圧 1014 hPa
視程: 9000m
高度3000ftの雲はほとんどない

METAR: MUHA 200955Z 19002KT 9000 FEW030 21/20 Q1014

時間: 07:07 (11:07 UTC)

予報

当レポートは6時間7分前の05:00(UTC)に作成
予報は20日の 06時(UTC)から 21日の 06時(UTC)まで有効
変向風 3kt
視程: 9000m
高度3000ftの雲はほとんどない
20日の 08時(UTC)から 20日の 12時(UTC)まで一時的に
視程: 2000m
部分的に霧に覆われる
20日の 13時(UTC)から 20日の 15時(UTC)まで徐々に
東/北東の風 8kt
高度2000ftの千切れ雲あり
20日の 18時(UTC)から 20日の 23時(UTC)まで一時的に
視程: 5000m
高度1800ftの雲はほとんどない, 積乱雲.
高度2000ftの千切れ雲あり
激しい雷雨, 雨

TAF: MUHA 200500Z 2006/2106 VRB03KT 9000 FEW030 TEMPO 2008/2012 2000 PRFG BECMG 2013/2015 07008KT BKN020 TEMPO 2018/2023 5000 TSRA FEW018CB BKN020

4,000以上の空港の気象観測と天気予報(METAR報とTAF報)

利用可能な観測所は地図上に黄色い丸と赤い丸で示す。

丸の上にカーソルを重ねると観測所名を参照できる。

次にクリックすると気象観測と天気予報を参照できる。

マップの切り替え:黒色「×」印の緑ボタンをクリックして拡大、「-」印の緑ボタンをクリックして縮小、緑色の三角印をクリックして隣りの地図に切り替え


METAR-TAF: